createdAt,value
2022-12-19T00:01:38.525Z,96252.40
2022-12-19T00:04:10.044Z,96255.60
2022-12-19T00:06:43.627Z,96250.60
2022-12-19T00:09:12.021Z,96240.20
2022-12-19T00:11:39.794Z,96235.20
2022-12-19T00:14:07.335Z,96230.00
2022-12-19T00:16:34.040Z,96223.80
2022-12-19T00:19:01.719Z,96210.60
2022-12-19T00:21:34.875Z,96207.80
2022-12-19T00:24:10.479Z,96201.40
2022-12-19T00:26:47.755Z,96179.60
2022-12-19T00:29:14.760Z,96175.20
2022-12-19T00:31:41.593Z,96165.80
2022-12-19T00:34:09.560Z,96156.80
2022-12-19T00:36:36.212Z,96153.40
2022-12-19T00:39:07.705Z,96161.80
2022-12-19T00:41:41.780Z,96171.40
2022-12-19T00:44:14.196Z,96186.60
2022-12-19T00:46:41.282Z,96210.60
2022-12-19T00:49:08.132Z,96233.00
2022-12-19T00:51:37.172Z,96237.00
2022-12-19T00:54:06.812Z,96223.40
2022-12-19T00:56:37.831Z,96204.20
2022-12-19T00:59:07.177Z,96200.80
2022-12-19T01:01:39.656Z,96200.60
2022-12-19T01:07:01.594Z,96185.00
2022-12-19T01:09:34.493Z,96193.40
2022-12-19T01:12:24.466Z,96185.60
2022-12-19T01:14:56.403Z,96182.40
2022-12-19T01:17:30.942Z,96171.80
2022-12-19T01:19:57.560Z,96159.80
2022-12-19T01:22:24.207Z,96160.60
2022-12-19T01:24:50.764Z,96164.80
2022-12-19T01:27:17.521Z,96165.00
2022-12-19T01:29:52.371Z,96166.40
2022-12-19T01:32:22.164Z,96165.00
2022-12-19T01:34:49.509Z,96173.00
2022-12-19T01:37:16.165Z,96167.60
2022-12-19T01:39:44.843Z,96175.60
2022-12-19T01:42:23.360Z,96188.80
2022-12-19T01:45:30.239Z,96200.00
2022-12-19T01:48:16.159Z,96206.60
2022-12-19T01:51:02.960Z,96210.20
2022-12-19T01:53:48.710Z,96204.60
2022-12-19T01:56:20.640Z,96209.00
2022-12-19T01:58:49.531Z,96207.80
2022-12-19T02:01:17.871Z,96205.40
2022-12-19T02:03:46.219Z,96211.60
2022-12-19T02:06:16.000Z,96223.20
2022-12-19T02:08:44.891Z,96225.80
2022-12-19T02:11:11.727Z,96221.60
2022-12-19T02:13:39.560Z,96218.20
2022-12-19T02:16:30.280Z,96216.40
2022-12-19T02:19:18.873Z,96218.80
2022-12-19T02:22:02.019Z,96218.40
2022-12-19T02:25:00.172Z,96214.40
2022-12-19T02:27:41.550Z,96215.20
2022-12-19T02:30:12.881Z,96233.80
2022-12-19T02:33:14.645Z,96235.00
2022-12-19T02:35:56.346Z,96238.20
2022-12-19T02:38:31.249Z,96249.60
2022-12-19T02:41:25.966Z,96236.00
2022-12-19T02:43:58.747Z,96234.00
2022-12-19T02:46:27.591Z,96237.00
2022-12-19T02:48:55.402Z,96245.20
2022-12-19T02:51:21.963Z,96260.60
2022-12-19T02:53:48.709Z,96246.80
2022-12-19T02:56:45.910Z,96255.20
2022-12-19T03:00:09.452Z,96251.80
2022-12-19T03:03:11.744Z,96254.80
2022-12-19T03:06:13.772Z,96265.00
2022-12-19T03:08:58.602Z,96260.60
2022-12-19T03:11:28.239Z,96261.60
2022-12-19T03:14:02.306Z,96257.20
2022-12-19T03:16:29.183Z,96260.80
2022-12-19T03:18:57.769Z,96261.40
2022-12-19T03:21:36.107Z,96269.40
2022-12-19T03:24:05.250Z,96272.20
2022-12-19T03:26:38.595Z,96270.40
2022-12-19T03:29:13.176Z,96265.20
2022-12-19T03:31:40.725Z,96255.40
2022-12-19T03:34:35.276Z,96249.40
2022-12-19T03:37:05.687Z,96265.00
2022-12-19T03:39:35.424Z,96269.40
2022-12-19T03:42:22.392Z,96258.60
2022-12-19T03:44:51.614Z,96297.20
2022-12-19T03:47:51.384Z,96275.80
2022-12-19T03:50:18.347Z,96281.60
2022-12-19T03:53:00.783Z,96267.00
2022-12-19T03:55:39.111Z,96270.80
2022-12-19T03:58:28.550Z,96261.40
2022-12-19T04:00:58.547Z,96278.60
2022-12-19T04:03:26.475Z,96267.80
2022-12-19T04:05:54.987Z,96243.40
2022-12-19T04:08:23.999Z,96238.80
2022-12-19T04:10:58.009Z,96235.60
2022-12-19T04:13:34.920Z,96241.20
2022-12-19T04:16:10.486Z,96285.00
2022-12-19T04:18:40.755Z,96281.00
2022-12-19T04:21:17.227Z,96294.00
2022-12-19T04:23:52.406Z,96280.40
2022-12-19T04:26:20.499Z,96303.20
2022-12-19T04:28:53.021Z,96300.20
2022-12-19T04:31:20.859Z,96286.80
2022-12-19T04:33:47.426Z,96327.80
2022-12-19T04:36:14.570Z,96328.40
2022-12-19T04:38:41.420Z,96281.20
2022-12-19T04:41:08.000Z,96295.00
2022-12-19T04:43:34.592Z,96278.00
2022-12-19T04:46:01.622Z,96261.20
2022-12-19T04:48:28.247Z,96260.60
2022-12-19T04:50:56.376Z,96247.40
2022-12-19T04:53:23.052Z,96257.20
2022-12-19T04:55:49.716Z,96227.00
2022-12-19T04:58:21.469Z,96218.80
2022-12-19T05:00:49.067Z,96240.80
2022-12-19T05:03:15.740Z,96260.80
2022-12-19T05:05:42.447Z,96253.40
2022-12-19T05:08:09.765Z,96251.80
2022-12-19T05:10:37.482Z,96257.60
2022-12-19T05:13:04.203Z,96253.40
2022-12-19T05:15:30.840Z,96251.60
2022-12-19T05:17:57.801Z,96267.20
2022-12-19T05:20:24.452Z,96251.60
2022-12-19T05:22:51.024Z,96262.20
2022-12-19T05:25:17.653Z,96251.00
2022-12-19T05:27:44.280Z,96254.00
2022-12-19T05:30:11.583Z,96256.40
2022-12-19T05:32:38.234Z,96282.20
2022-12-19T05:35:05.435Z,96294.60
2022-12-19T05:37:32.065Z,96287.40
2022-12-19T05:39:58.685Z,96293.60
2022-12-19T05:42:26.609Z,96281.80
2022-12-19T05:44:53.183Z,96272.40
2022-12-19T05:47:22.625Z,96272.20
2022-12-19T05:49:49.263Z,96272.00
2022-12-19T05:52:15.995Z,96268.00
2022-12-19T05:54:42.638Z,96259.20
2022-12-19T05:57:09.193Z,96259.00
2022-12-19T05:59:35.734Z,96269.40
2022-12-19T06:02:02.422Z,96252.40
2022-12-19T06:04:30.488Z,96261.00
2022-12-19T06:06:57.226Z,96254.60
2022-12-19T06:09:23.964Z,96243.40
2022-12-19T06:11:51.214Z,96239.40
2022-12-19T06:14:17.792Z,96246.20
2022-12-19T06:16:44.592Z,96246.60
2022-12-19T06:19:11.314Z,96246.40
2022-12-19T06:21:42.455Z,96243.80
2022-12-19T06:24:14.528Z,96246.20
2022-12-19T06:26:41.449Z,96247.40
2022-12-19T06:29:08.030Z,96253.80
2022-12-19T06:31:34.810Z,96253.40
2022-12-19T06:34:02.112Z,96259.80
2022-12-19T06:36:31.292Z,96265.40
2022-12-19T06:38:58.852Z,96262.80
2022-12-19T06:41:45.870Z,96265.20
2022-12-19T06:44:15.316Z,96273.00
2022-12-19T06:46:43.100Z,96265.00
2022-12-19T06:49:11.254Z,96259.60
2022-12-19T06:51:37.913Z,96256.20
2022-12-19T06:54:04.743Z,96258.80
2022-12-19T06:56:40.134Z,96250.00
2022-12-19T06:59:09.508Z,96247.40
2022-12-19T07:02:00.195Z,96246.40
2022-12-19T07:04:52.596Z,96242.80
2022-12-19T07:07:19.664Z,96243.00
2022-12-19T07:09:46.415Z,96246.40
2022-12-19T07:12:13.005Z,96257.40
2022-12-19T07:14:39.697Z,96254.80
2022-12-19T07:17:06.425Z,96253.60
2022-12-19T07:19:35.076Z,96257.20
2022-12-19T07:22:03.266Z,96252.20
2022-12-19T07:24:30.528Z,96262.40
2022-12-19T07:26:58.055Z,96265.00
2022-12-19T07:29:24.765Z,96263.40
2022-12-19T07:31:51.450Z,96262.40
2022-12-19T07:34:18.092Z,96265.80
2022-12-19T07:36:44.698Z,96271.40
2022-12-19T07:39:11.506Z,96262.80
2022-12-19T07:41:38.784Z,96271.20
2022-12-19T07:44:06.995Z,96260.20
2022-12-19T07:46:33.808Z,96262.40
2022-12-19T07:49:01.103Z,96260.40
2022-12-19T07:51:28.565Z,96268.20
2022-12-19T07:53:55.402Z,96265.60
2022-12-19T07:56:22.052Z,96269.60
2022-12-19T07:58:49.070Z,96268.40
2022-12-19T08:01:15.885Z,96259.60
2022-12-19T08:03:42.657Z,96267.20
2022-12-19T08:06:10.161Z,96262.00
2022-12-19T08:08:37.741Z,96257.60
2022-12-19T08:11:11.409Z,96253.60
2022-12-19T08:13:43.295Z,96263.00
2022-12-19T08:16:13.349Z,96258.20
2022-12-19T08:18:40.601Z,96255.40
2022-12-19T08:21:09.147Z,96252.80
2022-12-19T08:23:35.936Z,96249.80
2022-12-19T08:26:12.686Z,96244.00
2022-12-19T08:28:39.487Z,96233.40
2022-12-19T08:31:16.362Z,96228.40
2022-12-19T08:33:43.587Z,96219.60
2022-12-19T08:36:14.240Z,96217.80
2022-12-19T08:38:41.221Z,96218.00
2022-12-19T08:41:09.192Z,96216.00
2022-12-19T08:43:36.265Z,96214.00
2022-12-19T08:46:03.120Z,96209.40
2022-12-19T08:48:32.144Z,96208.20
2022-12-19T08:51:02.465Z,96212.40
2022-12-19T08:53:32.597Z,96217.20
2022-12-19T08:56:07.639Z,96210.40
2022-12-19T08:58:34.760Z,96199.20
2022-12-19T09:01:05.946Z,96199.40
2022-12-19T09:03:43.477Z,96198.40
2022-12-19T09:06:20.232Z,96189.00
2022-12-19T09:08:47.445Z,96174.40
2022-12-19T09:11:19.376Z,96169.20
2022-12-19T09:13:48.204Z,96169.40
2022-12-19T09:16:22.694Z,96164.60
2022-12-19T09:18:53.269Z,96157.60
2022-12-19T09:21:23.769Z,96160.60
2022-12-19T09:23:54.439Z,96171.00
2022-12-19T09:26:27.392Z,96177.60
2022-12-19T09:29:00.842Z,96174.00
2022-12-19T09:31:28.809Z,96182.80
2022-12-19T09:33:55.785Z,96185.40
2022-12-19T09:36:25.191Z,96184.40
2022-12-19T09:38:57.988Z,96193.20
2022-12-19T09:42:39.287Z,96195.00
2022-12-19T09:45:33.169Z,96182.00
2022-12-19T09:48:01.608Z,96183.40
2022-12-19T09:51:10.323Z,96180.60
2022-12-19T09:54:06.728Z,96180.80
2022-12-19T09:56:45.731Z,96184.20
2022-12-19T09:59:29.823Z,96183.40
2022-12-19T10:02:34.599Z,96176.20
2022-12-19T10:05:41.583Z,96174.40
2022-12-19T10:08:10.237Z,96180.20
2022-12-19T10:12:40.012Z,96171.20
2022-12-19T10:13:57.429Z,96166.40
2022-12-19T10:17:23.694Z,96164.40
2022-12-19T10:20:21.550Z,96163.40
2022-12-19T10:23:35.961Z,96167.80
2022-12-19T10:26:23.362Z,96175.40
2022-12-19T10:29:20.889Z,96175.20
2022-12-19T10:32:04.417Z,96165.40
2022-12-19T10:34:45.293Z,96155.60
2022-12-19T10:37:49.160Z,96152.80
2022-12-19T10:40:35.038Z,96145.60
2022-12-19T10:43:33.558Z,96143.20
2022-12-19T10:46:13.458Z,96136.40
2022-12-19T10:48:40.417Z,96119.80
2022-12-19T10:51:23.829Z,96117.80
2022-12-19T10:54:00.433Z,96112.20
2022-12-19T10:56:37.476Z,96109.20
2022-12-19T10:59:18.538Z,96100.40
2022-12-19T11:01:51.660Z,96088.80
2022-12-19T11:04:34.481Z,96081.00
2022-12-19T11:07:04.932Z,96074.00
2022-12-19T11:09:40.174Z,96062.60
2022-12-19T11:16:43.773Z,96059.00
2022-12-19T11:19:45.188Z,96065.80
2022-12-19T11:29:16.270Z,96070.60
2022-12-19T11:29:33.479Z,96078.00
2022-12-19T11:29:54.791Z,96074.00
2022-12-19T11:30:44.495Z,96071.40
2022-12-19T11:32:43.629Z,96068.20
2022-12-19T11:35:24.368Z,96052.60
2022-12-19T11:37:58.951Z,96042.60
2022-12-19T11:40:56.120Z,96038.60
2022-12-19T11:43:44.646Z,96033.40
2022-12-19T11:46:39.983Z,96038.80
2022-12-19T11:49:44.188Z,96038.20
2022-12-19T11:56:18.985Z,96050.60
2022-12-19T11:58:51.721Z,96043.00
2022-12-19T12:01:42.489Z,96050.60
2022-12-19T12:05:03.261Z,96054.00
2022-12-19T12:08:48.169Z,96051.20
2022-12-19T12:15:34.570Z,96049.20
2022-12-19T12:25:01.511Z,96045.20
2022-12-19T12:31:15.790Z,96037.60
2022-12-19T12:31:16.751Z,96042.80
2022-12-19T12:31:49.435Z,96039.00
2022-12-19T12:32:00.730Z,96029.40
2022-12-19T12:32:06.520Z,96037.60
2022-12-19T12:35:56.638Z,96036.60
2022-12-19T12:39:18.317Z,96026.60
2022-12-19T12:42:28.898Z,96040.20
2022-12-19T12:44:59.389Z,96043.00
2022-12-19T12:47:30.363Z,96042.00
2022-12-19T12:50:07.131Z,96036.60
2022-12-19T12:52:43.008Z,96030.80
2022-12-19T12:55:23.098Z,96026.20
2022-12-19T12:57:49.889Z,96017.60
2022-12-19T13:00:29.864Z,96012.00
2022-12-19T13:03:19.386Z,96021.20
2022-12-19T13:05:45.971Z,96017.60
2022-12-19T13:08:40.156Z,96016.60
2022-12-19T13:11:35.567Z,96013.80
2022-12-19T13:14:02.963Z,96010.40
2022-12-19T13:16:45.079Z,96015.40
2022-12-19T13:19:27.509Z,96014.80
2022-12-19T13:22:04.516Z,96019.80
2022-12-19T13:24:55.191Z,96012.00
2022-12-19T13:27:21.841Z,96010.00
2022-12-19T13:30:00.381Z,96020.40
2022-12-19T13:32:33.238Z,96027.60
2022-12-19T13:35:38.672Z,96017.40
2022-12-19T13:39:50.481Z,96000.20
2022-12-19T13:42:03.141Z,95986.20
2022-12-19T13:44:36.740Z,95988.20
2022-12-19T13:47:06.053Z,95987.20
2022-12-19T13:49:35.381Z,95980.40
2022-12-19T13:52:04.883Z,95979.20
2022-12-19T13:54:38.336Z,95982.80
2022-12-19T13:57:23.952Z,95987.00
2022-12-19T14:00:00.303Z,95989.60
2022-12-19T14:02:53.671Z,95990.80
2022-12-19T14:06:14.292Z,96002.60
2022-12-19T14:08:22.679Z,96001.40
2022-12-19T14:11:40.272Z,96005.20
2022-12-19T14:14:12.618Z,96013.40
2022-12-19T14:16:44.762Z,96011.80
2022-12-19T14:19:26.239Z,96020.80
2022-12-19T14:22:03.940Z,96021.40
2022-12-19T14:24:35.305Z,96022.00
2022-12-19T14:28:23.675Z,96029.60
2022-12-19T14:30:30.560Z,96028.80
2022-12-19T14:33:44.637Z,96036.60
2022-12-19T14:36:12.599Z,96032.80
2022-12-19T14:39:20.246Z,96042.40
2022-12-19T14:41:48.324Z,96048.80
2022-12-19T14:52:50.942Z,96040.00
2022-12-19T14:54:10.514Z,96038.60
2022-12-19T14:54:11.024Z,96037.80
2022-12-19T14:54:34.715Z,96041.40
2022-12-19T14:56:08.240Z,96042.60
2022-12-19T14:58:52.745Z,96040.20
2022-12-19T15:01:31.907Z,96033.40
2022-12-19T15:04:48.524Z,96030.80
2022-12-19T15:07:12.265Z,96023.80
2022-12-19T15:11:03.854Z,96020.60
2022-12-19T15:14:51.086Z,96019.80
2022-12-19T15:16:07.282Z,96019.40
2022-12-19T15:18:34.187Z,96016.00
2022-12-19T15:21:05.466Z,96014.00
2022-12-19T15:23:32.722Z,96016.20
2022-12-19T15:26:07.320Z,96018.80
2022-12-19T15:28:47.515Z,96020.80
2022-12-19T15:31:38.771Z,96027.60
2022-12-19T15:34:40.059Z,96032.20
2022-12-19T15:37:14.146Z,96041.60
2022-12-19T15:39:41.582Z,96029.40
2022-12-19T15:42:21.913Z,96021.00
2022-12-19T15:44:49.979Z,96020.20
2022-12-19T15:47:24.407Z,96015.80
2022-12-19T15:49:51.041Z,96013.40
2022-12-19T15:52:20.116Z,96025.20
2022-12-19T15:54:48.633Z,96029.40
2022-12-19T15:57:29.823Z,96024.40
2022-12-19T16:00:23.421Z,96023.60
2022-12-19T16:05:38.889Z,96029.60
2022-12-19T16:08:19.378Z,96030.00
2022-12-19T16:11:00.997Z,96030.00
2022-12-19T16:13:31.644Z,96025.40
2022-12-19T16:15:58.772Z,96026.60
2022-12-19T16:18:25.673Z,96023.80
2022-12-19T16:20:52.301Z,96025.20
2022-12-19T16:23:19.794Z,96028.00
2022-12-19T16:25:52.545Z,96028.40
2022-12-19T16:28:29.741Z,96041.60
2022-12-19T16:30:58.332Z,96047.60
2022-12-19T16:33:30.569Z,96046.60
2022-12-19T16:36:06.944Z,96053.40
2022-12-19T16:38:35.636Z,96059.60
2022-12-19T16:41:02.835Z,96054.00
2022-12-19T16:43:38.645Z,96053.60
2022-12-19T16:46:07.420Z,96047.00
2022-12-19T16:48:36.165Z,96040.80
2022-12-19T16:51:02.877Z,96048.20
2022-12-19T16:53:29.536Z,96046.80
2022-12-19T16:55:57.535Z,96047.40
2022-12-19T16:58:27.846Z,96050.00
2022-12-19T17:00:56.591Z,96048.40
2022-12-19T17:03:37.121Z,96050.60
2022-12-19T17:06:04.088Z,96044.80
2022-12-19T17:08:32.462Z,96040.20
2022-12-19T17:10:59.251Z,96044.80
2022-12-19T17:13:25.978Z,96036.60
2022-12-19T17:15:56.738Z,96039.00
2022-12-19T17:18:35.339Z,96040.60
2022-12-19T17:21:02.703Z,96040.80
2022-12-19T17:23:32.262Z,96043.00
2022-12-19T17:26:00.901Z,96039.80
2022-12-19T17:28:29.068Z,96040.00
2022-12-19T17:31:00.232Z,96032.60
2022-12-19T17:33:39.971Z,96038.40
2022-12-19T17:36:07.819Z,96033.60
2022-12-19T17:38:34.830Z,96036.80
2022-12-19T17:41:01.494Z,96042.80
2022-12-19T17:43:28.468Z,96040.40
2022-12-19T17:45:55.352Z,96029.40
2022-12-19T17:48:31.375Z,96032.40
2022-12-19T17:50:58.682Z,96027.40
2022-12-19T17:53:26.473Z,96026.00
2022-12-19T17:55:53.641Z,96022.20
2022-12-19T17:58:21.666Z,96026.60
2022-12-19T18:00:49.976Z,96028.40
2022-12-19T18:03:22.884Z,96025.00
2022-12-19T18:05:53.870Z,96025.20
2022-12-19T18:08:31.631Z,96022.20
2022-12-19T18:11:05.128Z,96030.60
2022-12-19T18:13:32.216Z,96027.60
2022-12-19T18:16:01.836Z,96014.00
2022-12-19T18:18:34.378Z,96010.20
2022-12-19T18:21:02.445Z,96009.00
2022-12-19T18:23:32.766Z,96018.80
2022-12-19T18:26:02.366Z,96028.40
2022-12-19T18:28:30.455Z,96025.80
2022-12-19T18:31:04.724Z,96028.00
2022-12-19T18:33:38.876Z,96021.20
2022-12-19T18:36:07.645Z,96009.80
2022-12-19T18:38:34.655Z,96006.40
2022-12-19T18:41:01.446Z,96003.60
2022-12-19T18:43:31.085Z,95998.80
2022-12-19T18:45:57.927Z,95985.80
2022-12-19T18:48:25.865Z,95969.00
2022-12-19T18:50:54.334Z,95971.40
2022-12-19T18:53:23.738Z,95970.40
2022-12-19T18:55:51.699Z,95964.80
2022-12-19T18:58:20.536Z,95962.80
2022-12-19T19:00:49.582Z,95964.60
2022-12-19T19:03:26.408Z,95966.40
2022-12-19T19:05:55.991Z,95970.60
2022-12-19T19:08:26.747Z,95965.20
2022-12-19T19:11:02.475Z,95955.60
2022-12-19T19:13:29.234Z,95956.60
2022-12-19T19:16:01.494Z,95961.40
2022-12-19T19:18:33.677Z,95966.40
2022-12-19T19:21:01.847Z,95967.60
2022-12-19T19:23:55.464Z,95966.40
2022-12-19T19:26:22.228Z,95960.80
2022-12-19T19:28:52.450Z,95966.20
2022-12-19T19:31:23.212Z,95962.60
2022-12-19T19:33:56.386Z,95958.80
2022-12-19T19:36:28.600Z,95958.20
2022-12-19T19:38:57.272Z,95961.40
2022-12-19T19:41:30.104Z,95968.40
2022-12-19T19:43:59.733Z,95966.20
2022-12-19T19:46:28.016Z,95973.00
2022-12-19T19:48:55.686Z,95975.80
2022-12-19T19:51:22.341Z,95969.40
2022-12-19T19:53:49.003Z,95959.60
2022-12-19T19:56:15.778Z,95962.20
2022-12-19T19:58:42.347Z,95951.40
2022-12-19T20:01:11.204Z,95947.60
2022-12-19T20:03:40.210Z,95956.40
2022-12-19T20:06:07.812Z,95958.20
2022-12-19T20:08:39.802Z,95961.00
2022-12-19T20:11:08.329Z,95957.40
2022-12-19T20:13:35.640Z,95957.00
2022-12-19T20:16:12.152Z,95958.80
2022-12-19T20:18:41.172Z,95955.80
2022-12-19T20:21:13.409Z,95956.80
2022-12-19T20:23:42.846Z,95958.20
2022-12-19T20:26:12.601Z,95955.80
2022-12-19T20:28:47.888Z,95953.40
2022-12-19T20:31:16.231Z,95959.60
2022-12-19T20:33:42.877Z,95970.80
2022-12-19T20:36:12.962Z,95964.60
2022-12-19T20:38:40.350Z,95961.40
2022-12-19T20:41:07.772Z,95966.20
2022-12-19T20:43:35.127Z,95961.40
2022-12-19T20:46:08.079Z,95959.60
2022-12-19T20:48:34.751Z,95956.60
2022-12-19T20:51:04.555Z,95958.00
2022-12-19T20:53:32.931Z,95945.00
2022-12-19T20:56:01.969Z,95955.20
2022-12-19T20:58:31.663Z,95946.80
2022-12-19T21:01:07.943Z,95941.60
2022-12-19T21:03:36.307Z,95943.40
2022-12-19T21:06:05.106Z,95937.00
2022-12-19T21:08:32.203Z,95937.00
2022-12-19T21:11:01.329Z,95939.00
2022-12-19T21:13:28.174Z,95938.00
2022-12-19T21:16:02.954Z,95939.60
2022-12-19T21:18:30.788Z,95933.00
2022-12-19T21:20:59.371Z,95930.00
2022-12-19T21:23:26.856Z,95943.80
2022-12-19T21:25:58.526Z,95944.20
2022-12-19T21:28:25.627Z,95945.00
2022-12-19T21:31:20.310Z,95941.00
2022-12-19T21:33:47.939Z,95938.60
2022-12-19T21:36:20.359Z,95939.40
2022-12-19T21:38:53.693Z,95941.60
2022-12-19T21:41:20.734Z,95941.60
2022-12-19T21:43:52.272Z,95939.60
2022-12-19T21:46:23.495Z,95937.80
2022-12-19T21:48:54.481Z,95944.20
2022-12-19T21:51:25.244Z,95940.60
2022-12-19T21:54:04.079Z,95944.40
2022-12-19T21:56:34.771Z,95952.40
2022-12-19T21:59:05.758Z,95959.40
2022-12-19T22:01:33.032Z,95960.80
2022-12-19T22:04:11.837Z,95958.60
2022-12-19T22:06:39.329Z,95946.60
2022-12-19T22:09:10.675Z,95942.80
2022-12-19T22:11:37.568Z,95939.80
2022-12-19T22:14:05.395Z,95943.60
2022-12-19T22:16:33.670Z,95945.60
2022-12-19T22:19:00.923Z,95938.60
2022-12-19T22:21:27.838Z,95936.40
2022-12-19T22:24:03.008Z,95936.60
2022-12-19T22:26:31.788Z,95935.40
2022-12-19T22:29:00.026Z,95934.80
2022-12-19T22:31:36.838Z,95927.20
2022-12-19T22:34:16.604Z,95918.80
2022-12-19T22:36:44.622Z,95921.80
2022-12-19T22:39:15.491Z,95924.20
2022-12-19T22:41:43.498Z,95922.00
2022-12-19T22:44:18.813Z,95922.40
2022-12-19T22:46:45.990Z,95927.40
2022-12-19T22:49:14.000Z,95927.40
2022-12-19T22:51:41.441Z,95924.60
2022-12-19T22:54:10.071Z,95923.00
2022-12-19T22:56:36.733Z,95926.80
2022-12-19T22:59:07.723Z,95923.60
2022-12-19T23:01:38.767Z,95923.80
2022-12-19T23:04:08.735Z,95925.80
2022-12-19T23:06:38.083Z,95928.00
2022-12-19T23:09:07.314Z,95926.40
2022-12-19T23:11:37.961Z,95929.00
2022-12-19T23:14:08.454Z,95925.80
2022-12-19T23:16:35.173Z,95916.60
2022-12-19T23:19:01.819Z,95913.40
2022-12-19T23:21:28.495Z,95910.00
2022-12-19T23:23:56.322Z,95909.80
2022-12-19T23:26:30.917Z,95912.40
2022-12-19T23:29:05.048Z,95915.00
2022-12-19T23:31:32.439Z,95917.20
2022-12-19T23:34:00.096Z,95919.40
2022-12-19T23:37:08.266Z,95916.00
2022-12-19T23:39:14.810Z,95905.00
2022-12-19T23:41:41.797Z,95909.20
2022-12-19T23:44:09.676Z,95904.40
2022-12-19T23:46:37.235Z,95907.60
2022-12-19T23:49:04.481Z,95899.80
2022-12-19T23:51:32.120Z,95894.20
2022-12-19T23:53:58.767Z,95892.20
2022-12-19T23:56:28.938Z,95890.40
2022-12-19T23:58:56.293Z,95890.80
